This is the latest recevied weather packets stored in our database for station/object KD7ECD. If no packets are shown the sender has not sent any weather packets the latest 10 day(s).
| Time | Temp. | Humidity | Pressure | Rain* | Wind** | Luminosity | Snow |
|---|---|---|---|---|---|---|---|
| 1777848808 | 17.22° C | 68% | 1014.3 hPa | 0 mm | - | 256 W/m² | - |
| 1777848207 | 17.22° C | 65% | 1014.6 hPa | 0 mm | - | 311 W/m² | - |
| 1777847603 | 16.67° C | 68% | 1014.7 hPa | 0 mm | - | 260 W/m² | - |
| 1777847003 | 16.67° C | 68% | 1014.6 hPa | 0 mm | - | 246 W/m² | - |
| 1777846399 | 16.11° C | 69% | 1014.8 hPa | 0 mm | - | 246 W/m² | - |
| 1777845797 | 16.67° C | 68% | 1014.7 hPa | 0 mm | - | 233 W/m² | - |
| 1777845197 | 16.67° C | 68% | 1014.5 hPa | 0 mm | - | 293 W/m² | - |
| 1777844592 | 16.67° C | 68% | 1014.7 hPa | 0 mm | - | 304 W/m² | - |
| 1777843987 | 16.67° C | 66% | 1014.7 hPa | 0 mm | - | 360 W/m² | - |
| 1777843381 | 17.78° C | 64% | 1014.6 hPa | 0 mm | - | 585 W/m² | - |
| 1777842781 | 17.22° C | 66% | 1014.5 hPa | 0 mm | - | 531 W/m² | - |
| 1777842179 | 17.22° C | 64% | 1014.9 hPa | 0 mm | - | 588 W/m² | - |
| 1777841576 | 16.67° C | 67% | 1014.6 hPa | 0 mm | - | 385 W/m² | - |
| 1777840977 | 17.22° C | 66% | 1014.6 hPa | 0 mm | - | 560 W/m² | - |
| 1777840371 | 17.22° C | 66% | 1014.7 hPa | 0 mm | - | 920 W/m² | - |
| 1777839766 | 17.78° C | 65% | 1014.7 hPa | 0 mm | - | 937 W/m² | - |
| 1777839167 | 17.22° C | 67% | 1014.8 hPa | 0 mm | - | 843 W/m² | - |
| 1777838565 | 17.22° C | 65% | 1014.9 hPa | 0 mm | - | 919 W/m² | - |
| 1777837965 | 16.67° C | 68% | 1015 hPa | 0 mm | - | 1039 W/m² | - |
| 1777837364 | 16.11° C | 70% | 1015.1 hPa | 0 mm | - | 972 W/m² | - |
| 1777836763 | 16.11° C | 69% | 1015.1 hPa | 0 mm | - | 592 W/m² | - |
| 1777836159 | 16.11° C | 71% | 1015 hPa | 0 mm | - | 941 W/m² | - |
| 1777835554 | 16.11° C | 70% | 1015.2 hPa | 0 mm | - | 993 W/m² | - |
| 1777834953 | 15° C | 74% | 1015.1 hPa | 0 mm | - | 363 W/m² | - |
| 1777834352 | 15.56° C | 73% | 1015 hPa | 0 mm | - | 993 W/m² | - |
* Rain latest hour (hover to see other rain measurements)
** Current wind speed in m/s (hover to see current wind gust speed)